createdAt,value
2023-11-26T00:00:26.789Z,0.43
2023-11-26T00:02:53.913Z,0.38
2023-11-26T00:05:21.084Z,0.55
2023-11-26T00:07:47.994Z,0.50
2023-11-26T00:10:14.884Z,0.50
2023-11-26T00:12:41.879Z,0.40
2023-11-26T00:15:12.703Z,0.80
2023-11-26T00:17:39.703Z,0.45
2023-11-26T00:20:07.803Z,0.30
2023-11-26T00:22:34.634Z,0.30
2023-11-26T00:25:01.918Z,0.40
2023-11-26T00:27:28.726Z,0.30
2023-11-26T00:29:56.628Z,0.45
2023-11-26T00:32:24.042Z,0.20
2023-11-26T00:34:50.899Z,0.20
2023-11-26T00:37:17.751Z,0.30
2023-11-26T00:39:45.030Z,0.40
2023-11-26T00:42:11.893Z,0.40
2023-11-26T00:44:38.759Z,0.32
2023-11-26T00:47:06.213Z,0.20
2023-11-26T00:49:33.457Z,0.13
2023-11-26T00:52:00.276Z,0.25
2023-11-26T00:54:27.106Z,0.40
2023-11-26T00:56:53.857Z,0.35
2023-11-26T00:59:20.727Z,0.20
2023-11-26T01:01:47.645Z,0.30
2023-11-26T01:04:14.574Z,0.17
2023-11-26T01:06:41.381Z,0.20
2023-11-26T01:09:08.253Z,0.20
2023-11-26T01:11:38.243Z,0.22
2023-11-26T01:14:07.002Z,0.25
2023-11-26T01:16:33.823Z,0.30
2023-11-26T01:19:00.866Z,0.20
2023-11-26T01:21:27.725Z,0.20
2023-11-26T01:23:54.600Z,0.20
2023-11-26T01:26:21.990Z,0.35
2023-11-26T01:28:49.078Z,0.20
2023-11-26T01:31:16.004Z,0.30
2023-11-26T01:33:43.001Z,0.30
2023-11-26T01:36:13.249Z,0.40
2023-11-26T01:38:40.283Z,0.30
2023-11-26T01:41:07.247Z,0.40
2023-11-26T01:43:34.151Z,0.30
2023-11-26T01:46:11.799Z,0.20
2023-11-26T01:48:40.107Z,0.20
2023-11-26T01:51:14.349Z,0.30
2023-11-26T01:53:46.894Z,0.40
2023-11-26T01:56:15.489Z,0.30
2023-11-26T01:58:45.262Z,0.30
2023-11-26T02:01:19.292Z,0.20
2023-11-26T02:03:46.246Z,0.40
2023-11-26T02:06:13.258Z,0.30
2023-11-26T02:08:40.853Z,0.40
2023-11-26T02:13:48.519Z,0.20
2023-11-26T02:16:15.814Z,0.35
2023-11-26T02:18:43.307Z,0.43
2023-11-26T02:21:10.530Z,0.30
2023-11-26T02:23:38.954Z,0.47
2023-11-26T02:26:07.692Z,0.30
2023-11-26T02:28:34.583Z,0.40
2023-11-26T02:31:01.423Z,0.30
2023-11-26T02:33:28.310Z,0.30
2023-11-26T02:36:15.104Z,0.20
2023-11-26T02:38:41.869Z,0.25
2023-11-26T02:41:10.863Z,0.28
2023-11-26T02:43:37.941Z,0.30
2023-11-26T02:46:05.110Z,0.30
2023-11-26T02:48:32.666Z,0.50
2023-11-26T02:53:26.201Z,0.20
2023-11-26T02:55:53.033Z,0.33
2023-11-26T02:58:19.850Z,0.30
2023-11-26T03:00:48.336Z,0.38
2023-11-26T03:03:15.228Z,0.20
2023-11-26T03:05:43.080Z,0.20
2023-11-26T03:08:21.971Z,0.30
2023-11-26T03:11:10.483Z,0.10
2023-11-26T03:13:37.729Z,0.30
2023-11-26T03:16:12.358Z,0.20
2023-11-26T03:18:39.903Z,0.30
2023-11-26T03:21:07.259Z,0.20
2023-11-26T03:23:34.238Z,0.20
2023-11-26T03:26:01.226Z,0.30
2023-11-26T03:28:28.555Z,0.20
2023-11-26T03:30:57.792Z,0.30
2023-11-26T03:33:27.928Z,0.17
2023-11-26T03:35:55.257Z,0.30
2023-11-26T03:38:22.141Z,0.30
2023-11-26T03:40:48.973Z,0.40
2023-11-26T03:43:16.368Z,0.60
2023-11-26T03:45:43.403Z,0.50
2023-11-26T03:48:10.651Z,0.40
2023-11-26T03:50:37.484Z,0.52
2023-11-26T03:53:04.329Z,0.43
2023-11-26T03:55:31.738Z,0.50
2023-11-26T03:57:58.551Z,0.60
2023-11-26T04:00:25.391Z,0.40
2023-11-26T04:02:52.300Z,0.60
2023-11-26T04:05:19.232Z,0.60
2023-11-26T04:07:46.306Z,0.50
2023-11-26T04:10:21.928Z,0.50
2023-11-26T04:12:54.140Z,0.40
2023-11-26T04:15:23.810Z,0.52
2023-11-26T04:17:50.910Z,0.60
2023-11-26T04:20:17.797Z,0.50
2023-11-26T04:22:45.759Z,0.75
2023-11-26T04:25:12.866Z,0.60
2023-11-26T04:27:39.687Z,0.63
2023-11-26T04:30:08.886Z,0.70
2023-11-26T04:32:35.781Z,0.73
2023-11-26T04:35:02.672Z,0.80
2023-11-26T04:37:29.512Z,0.70
2023-11-26T04:39:56.286Z,0.60
2023-11-26T04:42:23.111Z,0.50
2023-11-26T04:44:49.923Z,0.77
2023-11-26T04:47:16.850Z,0.47
2023-11-26T04:49:45.377Z,0.55
2023-11-26T04:52:12.225Z,0.40
2023-11-26T04:54:38.994Z,0.70
2023-11-26T04:57:05.832Z,0.70
2023-11-26T04:59:32.904Z,0.45
2023-11-26T05:02:07.199Z,0.40
2023-11-26T05:04:34.363Z,0.50
2023-11-26T05:07:01.191Z,0.73
2023-11-26T05:09:28.071Z,0.50
2023-11-26T05:11:54.833Z,0.70
2023-11-26T05:14:21.636Z,0.60
2023-11-26T05:16:48.990Z,0.57
2023-11-26T05:19:16.433Z,0.73
2023-11-26T05:21:43.731Z,0.57
2023-11-26T05:24:11.382Z,0.70
2023-11-26T05:29:06.201Z,0.50
2023-11-26T05:31:33.044Z,0.60
2023-11-26T05:33:59.884Z,0.80
2023-11-26T05:36:27.555Z,0.65
2023-11-26T05:38:54.561Z,0.43
2023-11-26T05:41:21.501Z,0.50
2023-11-26T05:43:48.454Z,0.60
2023-11-26T05:46:15.348Z,0.50
2023-11-26T05:48:43.312Z,0.63
2023-11-26T05:51:10.726Z,0.50
2023-11-26T05:53:37.700Z,0.60
2023-11-26T05:56:08.079Z,0.45
2023-11-26T05:58:34.944Z,0.47
2023-11-26T06:01:01.914Z,0.60
2023-11-26T06:03:28.863Z,0.60
2023-11-26T06:05:55.687Z,0.50
2023-11-26T06:08:22.482Z,0.50
2023-11-26T06:10:49.278Z,0.50
2023-11-26T06:13:16.144Z,0.70
2023-11-26T06:15:43.163Z,0.50
2023-11-26T06:18:10.998Z,0.47
2023-11-26T06:20:38.422Z,0.40
2023-11-26T06:23:05.687Z,0.40
2023-11-26T06:25:32.541Z,0.55
2023-11-26T06:27:59.373Z,0.50
2023-11-26T06:30:26.294Z,0.60
2023-11-26T06:32:53.484Z,0.52
2023-11-26T06:35:20.434Z,0.52
2023-11-26T06:37:47.939Z,0.38
2023-11-26T06:40:15.053Z,0.40
2023-11-26T06:42:42.519Z,0.50
2023-11-26T06:47:38.295Z,0.28
2023-11-26T06:50:07.056Z,0.50
2023-11-26T06:52:36.351Z,0.50
2023-11-26T06:55:03.454Z,0.60
2023-11-26T06:57:30.687Z,0.38
2023-11-26T06:59:57.579Z,0.60
2023-11-26T07:02:24.580Z,0.57
2023-11-26T07:04:51.658Z,0.40
2023-11-26T07:07:22.089Z,0.68
2023-11-26T07:09:49.322Z,0.47
2023-11-26T07:12:16.438Z,0.60
2023-11-26T07:14:45.442Z,0.60
2023-11-26T07:17:13.962Z,0.90
2023-11-26T07:19:45.455Z,0.68
2023-11-26T07:22:14.563Z,0.70
2023-11-26T07:24:42.345Z,0.80
2023-11-26T07:27:09.529Z,0.50
2023-11-26T07:29:36.503Z,0.57
2023-11-26T07:32:04.369Z,0.70
2023-11-26T07:34:34.058Z,0.60
2023-11-26T07:37:05.788Z,0.60
2023-11-26T07:39:33.363Z,0.60
2023-11-26T07:42:04.992Z,0.28
2023-11-26T07:44:37.731Z,0.50
2023-11-26T07:47:12.341Z,0.63
2023-11-26T07:49:39.376Z,0.43
2023-11-26T07:52:06.676Z,0.60
2023-11-26T07:54:34.039Z,0.50
2023-11-26T07:57:04.325Z,0.43
2023-11-26T07:59:34.895Z,0.50
2023-11-26T08:02:10.004Z,0.50
2023-11-26T08:04:38.974Z,0.40
2023-11-26T08:07:10.159Z,0.55
2023-11-26T08:09:38.659Z,0.60
2023-11-26T08:12:12.431Z,0.57
2023-11-26T08:14:42.650Z,0.70
2023-11-26T08:17:14.347Z,0.55
2023-11-26T08:19:41.658Z,0.70
2023-11-26T08:22:09.957Z,0.82
2023-11-26T08:24:41.323Z,0.50
2023-11-26T08:27:09.676Z,0.70
2023-11-26T08:29:37.694Z,0.45
2023-11-26T08:32:08.711Z,0.70
2023-11-26T08:34:40.179Z,0.75
2023-11-26T08:37:15.831Z,0.80
2023-11-26T08:39:52.453Z,0.63
2023-11-26T08:42:22.940Z,0.60
2023-11-26T08:44:53.798Z,0.80
2023-11-26T08:47:35.448Z,0.60
2023-11-26T08:50:03.455Z,0.68
2023-11-26T08:52:40.642Z,0.63
2023-11-26T08:55:11.174Z,0.70
2023-11-26T08:57:44.889Z,0.50
2023-11-26T09:00:17.364Z,0.70
2023-11-26T09:02:45.605Z,0.50
2023-11-26T09:05:12.826Z,0.50
2023-11-26T09:07:45.642Z,0.50
2023-11-26T09:10:20.723Z,0.63
2023-11-26T09:12:53.582Z,0.40
2023-11-26T09:15:27.059Z,0.70
2023-11-26T09:17:56.819Z,0.90
2023-11-26T09:20:32.172Z,0.60
2023-11-26T09:23:00.478Z,0.80
2023-11-26T09:25:28.688Z,0.75
2023-11-26T09:28:05.707Z,0.90
2023-11-26T09:30:44.100Z,0.90
2023-11-26T09:33:23.264Z,0.90
2023-11-26T09:35:53.056Z,0.70
2023-11-26T09:38:23.081Z,0.85
2023-11-26T09:40:50.373Z,1.27
2023-11-26T09:43:18.059Z,1.00
2023-11-26T09:48:18.690Z,0.80
2023-11-26T09:51:00.052Z,1.48
2023-11-26T09:53:30.948Z,1.17
2023-11-26T09:56:02.878Z,1.02
2023-11-26T09:58:30.031Z,1.17
2023-11-26T10:01:00.016Z,0.95
2023-11-26T10:03:27.024Z,0.73
2023-11-26T10:06:12.329Z,0.80
2023-11-26T10:08:40.541Z,0.75
2023-11-26T10:11:07.924Z,0.82
2023-11-26T10:13:45.436Z,0.65
2023-11-26T10:16:14.163Z,0.55
2023-11-26T10:18:44.547Z,0.60
2023-11-26T10:21:14.817Z,0.70
2023-11-26T10:23:43.221Z,0.60
2023-11-26T10:26:25.640Z,0.60
2023-11-26T10:29:15.601Z,0.75
2023-11-26T10:32:11.490Z,1.02
2023-11-26T10:34:48.424Z,0.77
2023-11-26T10:37:22.005Z,0.60
2023-11-26T10:40:02.776Z,0.80
2023-11-26T10:42:31.371Z,0.90
2023-11-26T10:45:00.816Z,0.75
2023-11-26T10:47:31.292Z,0.65
2023-11-26T10:50:07.582Z,0.77
2023-11-26T10:52:54.190Z,0.70
2023-11-26T10:55:34.013Z,0.70
2023-11-26T10:58:20.705Z,0.80
2023-11-26T11:00:54.002Z,0.85
2023-11-26T11:03:25.129Z,0.60
2023-11-26T11:05:57.218Z,0.65
2023-11-26T11:08:27.608Z,0.98
2023-11-26T11:11:26.141Z,1.00
2023-11-26T11:13:54.628Z,0.68
2023-11-26T11:16:21.904Z,0.80
2023-11-26T11:18:48.927Z,0.75
2023-11-26T11:21:19.051Z,0.52
2023-11-26T11:23:55.243Z,0.70
2023-11-26T11:26:28.963Z,0.60
2023-11-26T11:28:59.549Z,0.60
2023-11-26T11:31:59.711Z,0.55
2023-11-26T11:34:26.596Z,0.70
2023-11-26T11:36:56.328Z,0.90
2023-11-26T11:39:52.385Z,0.60
2023-11-26T11:42:28.750Z,0.50
2023-11-26T11:45:15.738Z,0.88
2023-11-26T11:47:44.585Z,0.65
2023-11-26T11:50:12.500Z,0.57
2023-11-26T11:52:39.959Z,0.70
2023-11-26T11:55:35.948Z,0.57
2023-11-26T11:58:14.356Z,0.45
2023-11-26T12:00:44.796Z,0.40
2023-11-26T12:03:18.343Z,0.60
2023-11-26T12:05:45.504Z,0.50
2023-11-26T12:08:16.306Z,0.40
2023-11-26T12:10:44.190Z,0.60
2023-11-26T12:13:11.908Z,0.50
2023-11-26T12:18:07.839Z,0.45
2023-11-26T12:20:35.196Z,0.55
2023-11-26T12:23:02.096Z,0.45
2023-11-26T12:25:29.691Z,0.60
2023-11-26T12:30:39.451Z,0.50
2023-11-26T12:33:13.468Z,0.52
2023-11-26T12:36:01.922Z,0.60
2023-11-26T12:38:35.756Z,0.43
2023-11-26T12:41:02.702Z,0.52
2023-11-26T12:44:08.779Z,0.57
2023-11-26T12:47:41.999Z,0.55
2023-11-26T12:50:12.803Z,0.65
2023-11-26T12:52:54.049Z,0.50
2023-11-26T12:55:23.323Z,0.60
2023-11-26T12:57:55.151Z,0.60
2023-11-26T13:00:44.823Z,0.50
2023-11-26T13:03:11.684Z,0.50
2023-11-26T13:05:38.516Z,0.68
2023-11-26T13:08:23.820Z,0.63
2023-11-26T13:10:57.512Z,0.75
2023-11-26T13:13:33.858Z,0.50
2023-11-26T13:16:04.593Z,0.50
2023-11-26T13:18:32.100Z,0.70
2023-11-26T13:21:07.308Z,0.57
2023-11-26T13:23:37.328Z,0.50
2023-11-26T13:26:05.432Z,0.60
2023-11-26T13:28:32.668Z,0.70
2023-11-26T13:31:08.386Z,0.50
2023-11-26T13:33:35.477Z,0.60
2023-11-26T13:36:02.806Z,0.50
2023-11-26T13:38:32.490Z,0.43
2023-11-26T13:40:59.513Z,0.70
2023-11-26T13:43:26.682Z,0.60
2023-11-26T13:45:53.563Z,0.52
2023-11-26T13:48:24.060Z,0.57
2023-11-26T13:50:52.529Z,0.80
2023-11-26T13:53:20.201Z,0.80
2023-11-26T13:58:14.095Z,0.60
2023-11-26T14:00:42.860Z,0.68
2023-11-26T14:03:11.036Z,0.47
2023-11-26T14:05:38.789Z,0.70
2023-11-26T14:10:36.146Z,0.55
2023-11-26T14:16:59.973Z,0.70
2023-11-26T14:19:26.779Z,0.60
2023-11-26T14:21:54.200Z,0.60
2023-11-26T14:24:21.170Z,0.50
2023-11-26T14:26:47.948Z,0.50
2023-11-26T14:29:15.904Z,0.67
2023-11-26T14:31:42.884Z,0.60
2023-11-26T14:34:09.650Z,0.60
2023-11-26T14:36:37.666Z,0.70
2023-11-26T14:39:07.420Z,0.60
2023-11-26T14:41:34.545Z,0.70
2023-11-26T14:44:01.314Z,0.52
2023-11-26T14:46:28.093Z,0.60
2023-11-26T14:48:55.483Z,0.60
2023-11-26T14:51:22.248Z,0.50
2023-11-26T14:53:49.028Z,0.63
2023-11-26T14:56:17.482Z,0.87
2023-11-26T14:58:45.320Z,0.52
2023-11-26T15:01:18.635Z,0.57
2023-11-26T15:03:49.149Z,0.68
2023-11-26T15:06:22.618Z,0.60
2023-11-26T15:08:53.249Z,0.50
2023-11-26T15:11:22.322Z,0.50
2023-11-26T15:13:49.227Z,0.80
2023-11-26T15:16:16.223Z,0.65
2023-11-26T15:18:50.081Z,0.70
2023-11-26T15:21:31.295Z,0.57
2023-11-26T15:24:31.427Z,0.90
2023-11-26T15:31:32.841Z,0.60
2023-11-26T15:37:44.675Z,0.70
2023-11-26T15:41:03.521Z,0.82
2023-11-26T15:43:33.337Z,1.00
2023-11-26T15:48:52.054Z,1.00
2023-11-26T15:51:19.225Z,0.80
2023-11-26T15:54:01.839Z,0.80
2023-11-26T15:56:37.894Z,0.77
2023-11-26T15:59:08.340Z,0.73
2023-11-26T16:01:35.899Z,0.70
2023-11-26T16:06:39.298Z,0.57
2023-11-26T16:09:12.424Z,0.70
2023-11-26T16:11:41.244Z,0.90
2023-11-26T16:14:11.345Z,0.65
2023-11-26T16:16:38.730Z,1.33
2023-11-26T16:19:12.088Z,1.05
2023-11-26T16:21:42.490Z,0.90
2023-11-26T16:24:13.483Z,1.50
2023-11-26T16:26:42.353Z,1.67
2023-11-26T16:31:42.872Z,1.20
2023-11-26T16:34:14.294Z,0.90
2023-11-26T16:36:44.291Z,1.10
2023-11-26T16:39:12.133Z,1.38
2023-11-26T16:41:39.737Z,1.23
2023-11-26T16:46:37.765Z,1.10
2023-11-26T16:49:05.717Z,1.08
2023-11-26T16:51:32.765Z,1.10
2023-11-26T16:54:00.289Z,1.38
2023-11-26T16:58:54.135Z,1.10
2023-11-26T17:01:22.355Z,0.95
2023-11-26T17:03:49.622Z,1.30
2023-11-26T17:06:16.583Z,0.90
2023-11-26T17:08:47.059Z,0.93
2023-11-26T17:11:16.362Z,0.75
2023-11-26T17:13:45.668Z,0.82
2023-11-26T17:16:16.165Z,1.23
2023-11-26T17:18:48.855Z,1.13
2023-11-26T17:21:15.772Z,1.30
2023-11-26T17:23:47.430Z,0.90
2023-11-26T17:26:33.693Z,0.90
2023-11-26T17:29:10.086Z,1.17
2023-11-26T17:31:39.360Z,0.52
2023-11-26T17:34:10.364Z,0.80
2023-11-26T17:36:40.167Z,0.95
2023-11-26T17:39:10.361Z,0.80
2023-11-26T17:41:46.320Z,1.13
2023-11-26T17:44:17.710Z,0.98
2023-11-26T17:46:44.916Z,0.88
2023-11-26T17:49:15.120Z,0.90
2023-11-26T17:51:52.326Z,1.02
2023-11-26T17:56:57.608Z,0.98
2023-11-26T17:59:35.048Z,1.00
2023-11-26T18:02:02.248Z,0.93
2023-11-26T18:04:29.813Z,1.10
2023-11-26T18:09:23.682Z,0.77
2023-11-26T18:11:52.288Z,1.00
2023-11-26T18:14:21.069Z,0.77
2023-11-26T18:16:51.828Z,1.40
2023-11-26T18:19:20.549Z,1.00
2023-11-26T18:21:47.406Z,0.95
2023-11-26T18:24:14.497Z,1.25
2023-11-26T18:26:41.263Z,1.23
2023-11-26T18:29:10.693Z,1.20
2023-11-26T18:31:44.362Z,1.30
2023-11-26T18:34:11.421Z,1.00
2023-11-26T18:36:39.662Z,1.00
2023-11-26T18:39:06.516Z,1.00
2023-11-26T18:41:33.297Z,0.90
2023-11-26T18:44:00.159Z,0.67
2023-11-26T18:46:34.201Z,0.90
2023-11-26T18:49:01.014Z,0.63
2023-11-26T18:51:27.754Z,0.80
2023-11-26T18:53:54.452Z,1.10
2023-11-26T18:56:21.383Z,1.23
2023-11-26T18:58:48.237Z,1.15
2023-11-26T19:01:18.271Z,1.05
2023-11-26T19:03:45.766Z,1.20
2023-11-26T19:08:43.798Z,1.30
2023-11-26T19:11:13.536Z,1.98
2023-11-26T19:13:41.649Z,1.95
2023-11-26T19:16:13.595Z,1.65
2023-11-26T19:21:55.774Z,1.13
2023-11-26T19:21:57.054Z,1.40
2023-11-26T19:24:23.807Z,1.73
2023-11-26T19:26:50.593Z,1.23
2023-11-26T19:29:17.522Z,1.35
2023-11-26T19:31:44.254Z,1.20
2023-11-26T19:34:11.127Z,1.30
2023-11-26T19:36:38.076Z,1.17
2023-11-26T19:39:06.643Z,2.10
2023-11-26T19:41:33.398Z,1.88
2023-11-26T19:44:00.268Z,2.27
2023-11-26T19:46:27.153Z,1.98
2023-11-26T19:48:54.030Z,1.52
2023-11-26T19:51:22.342Z,1.58
2023-11-26T19:53:50.479Z,3.03
2023-11-26T19:56:18.439Z,2.20
2023-11-26T19:58:47.498Z,1.70
2023-11-26T20:01:15.260Z,1.50
2023-11-26T20:03:42.695Z,1.30
2023-11-26T20:06:12.182Z,0.90
2023-11-26T20:08:39.913Z,0.90
2023-11-26T20:11:08.878Z,0.85
2023-11-26T20:13:35.654Z,0.77
2023-11-26T20:16:02.546Z,1.10
2023-11-26T20:18:31.071Z,0.70
2023-11-26T20:21:00.053Z,0.70
2023-11-26T20:23:27.083Z,0.80
2023-11-26T20:25:54.089Z,0.80
2023-11-26T20:28:24.012Z,0.80
2023-11-26T20:31:02.885Z,0.70
2023-11-26T20:33:34.667Z,0.80
2023-11-26T20:36:01.538Z,1.02
2023-11-26T20:38:28.345Z,1.05
2023-11-26T20:40:55.114Z,1.35
2023-11-26T20:43:21.948Z,1.20
2023-11-26T20:45:48.871Z,1.75
2023-11-26T20:48:16.171Z,2.35
2023-11-26T20:50:42.973Z,1.90
2023-11-26T20:53:09.745Z,1.47
2023-11-26T20:55:36.611Z,1.43
2023-11-26T20:58:03.522Z,1.15
2023-11-26T21:00:30.288Z,1.25
2023-11-26T21:02:58.036Z,1.10
2023-11-26T21:05:24.968Z,1.05
2023-11-26T21:07:51.860Z,1.08
2023-11-26T21:10:18.754Z,1.00
2023-11-26T21:12:45.664Z,1.45
2023-11-26T21:15:12.623Z,1.10
2023-11-26T21:17:40.031Z,1.15
2023-11-26T21:20:12.212Z,1.40
2023-11-26T21:22:40.685Z,1.20
2023-11-26T21:25:08.086Z,1.17
2023-11-26T21:27:35.322Z,1.10
2023-11-26T21:30:02.623Z,1.10
2023-11-26T21:32:34.043Z,1.25
2023-11-26T21:35:01.404Z,0.93
2023-11-26T21:37:29.834Z,1.00
2023-11-26T21:39:56.867Z,1.20
2023-11-26T21:42:23.632Z,0.95
2023-11-26T21:44:50.514Z,1.17
2023-11-26T21:47:17.386Z,0.85
2023-11-26T21:49:44.196Z,1.17
2023-11-26T21:52:13.327Z,1.05
2023-11-26T21:54:41.042Z,0.70
2023-11-26T21:57:07.846Z,0.65
2023-11-26T21:59:36.388Z,0.73
2023-11-26T22:02:04.002Z,0.77
2023-11-26T22:04:31.019Z,0.60
2023-11-26T22:06:57.767Z,0.88
2023-11-26T22:09:24.520Z,0.90
2023-11-26T22:11:51.285Z,0.73
2023-11-26T22:14:18.136Z,1.00
2023-11-26T22:16:47.199Z,0.80
2023-11-26T22:19:14.241Z,0.80
2023-11-26T22:21:41.029Z,0.85
2023-11-26T22:24:08.935Z,0.90
2023-11-26T22:26:40.371Z,0.95
2023-11-26T22:29:07.416Z,1.30
2023-11-26T22:31:34.346Z,1.30
2023-11-26T22:34:02.137Z,1.02
2023-11-26T22:36:31.300Z,1.00
2023-11-26T22:38:59.493Z,1.00
2023-11-26T22:41:29.547Z,1.08
2023-11-26T22:43:57.568Z,1.00
2023-11-26T22:46:29.458Z,0.73
2023-11-26T22:49:00.315Z,0.50
2023-11-26T22:51:32.143Z,0.60
2023-11-26T22:53:59.185Z,0.95
2023-11-26T22:56:26.413Z,0.60
2023-11-26T22:58:54.913Z,0.90
2023-11-26T23:01:23.540Z,1.20
2023-11-26T23:03:51.116Z,0.90
2023-11-26T23:06:18.537Z,0.70
2023-11-26T23:08:45.766Z,0.95
2023-11-26T23:11:17.371Z,1.15
2023-11-26T23:13:44.832Z,1.00
2023-11-26T23:16:11.908Z,1.00
2023-11-26T23:18:38.969Z,0.90
2023-11-26T23:21:07.398Z,0.73
2023-11-26T23:23:42.152Z,0.90
2023-11-26T23:26:16.951Z,0.88
2023-11-26T23:28:43.727Z,0.55
2023-11-26T23:31:15.253Z,0.80
2023-11-26T23:33:46.709Z,1.05
2023-11-26T23:36:15.146Z,1.00
2023-11-26T23:38:43.832Z,0.80
2023-11-26T23:41:12.368Z,1.08
2023-11-26T23:43:40.845Z,1.00
2023-11-26T23:46:08.101Z,0.73
2023-11-26T23:48:35.226Z,0.80
2023-11-26T23:51:02.002Z,1.00
2023-11-26T23:53:28.769Z,1.25
2023-11-26T23:55:55.547Z,1.10
2023-11-26T23:58:22.390Z,0.93
